Time;durP1;ratioP1;P1;durP2;ratioP2;P2;SDS_P1;SDS_P2;PMS_P1;PMS_P2;Temp;Humidity;BMP_temperature;BMP_pressure;BME280_temperature;BME280_humidity;BME280_pressure;Samples;Min_cycle;Max_cycle;Signal;HPM_P1;HPM_P2
2022/03/02 00:00:44;;;;;;;25.63;13.70;;;;;;;3.04;82.99;99968.72;5013027;28;20478;-93
2022/03/02 00:03:13;;;;;;;24.63;13.57;;;;;;;1.30;83.46;99680.34;5006995;28;20207;-93
2022/03/02 00:05:38;;;;;;;24.83;13.10;;;;;;;0.41;85.88;99556.47;5008182;28;20207;-92
2022/03/02 00:08:05;;;;;;;25.83;12.17;;;;;;;0.69;86.68;99578.75;5005443;28;20451;-92
2022/03/02 00:10:31;;;;;;;27.63;12.77;;;;;;;-1.12;87.32;99291.19;5006741;28;20196;-92
2022/03/02 00:12:57;;;;;;;23.17;11.97;;;;;;;0.14;88.72;99514.28;5019000;28;20437;-93
2022/03/02 00:15:22;;;;;;;20.20;11.00;;;;;;;2.66;90.65;99961.44;5023868;28;20432;-93
2022/03/02 00:17:48;;;;;;;22.83;11.70;;;;;;;1.12;91.89;99686.28;5006483;28;20178;-93
2022/03/02 00:20:14;;;;;;;24.80;12.43;;;;;;;1.07;92.81;99675.91;4990512;28;20168;-93
2022/03/02 00:22:40;;;;;;;23.50;11.97;;;;;;;0.23;92.63;99529.13;5006999;28;20231;-92
2022/03/02 00:25:07;;;;;;;24.40;11.83;;;;;;;-0.10;93.29;99465.81;5008560;28;20183;-93
2022/03/02 00:27:33;;;;;;;29.33;13.40;;;;;;;0.05;94.28;99533.44;5026211;28;20205;-93
2022/03/02 00:29:59;;;;;;;29.10;13.87;;;;;;;-2.01;95.17;99149.31;5025849;28;20454;-92
2022/03/02 00:32:25;;;;;;;26.83;13.83;;;;;;;1.36;95.48;99713.28;5019627;28;20229;-92
2022/03/02 00:34:50;;;;;;;27.13;13.80;;;;;;;0.02;95.53;99507.41;5018833;28;20168;-92
2022/03/02 00:37:16;;;;;;;25.30;13.27;;;;;;;0.02;96.33;99509.91;5025015;28;20170;-91
2022/03/02 00:39:43;;;;;;;27.03;14.03;;;;;;;2.50;96.18;99952.53;5031340;28;20167;-91
2022/03/02 00:42:09;;;;;;;26.20;13.83;;;;;;;1.05;96.45;99684.88;5027173;28;20174;-92
2022/03/02 00:44:34;;;;;;;26.43;13.80;;;;;;;-1.97;96.11;99166.19;5015596;28;20466;-92
2022/03/02 00:47:00;;;;;;;28.33;14.30;;;;;;;-0.06;96.35;99502.66;5005437;28;20231;-92
2022/03/02 00:49:27;;;;;;;29.00;15.07;;;;;;;-0.07;97.03;99498.41;5004896;28;20196;-93
2022/03/02 00:51:56;;;;;;;41.20;15.40;;;;;;;2.23;98.12;99912.00;5003959;28;20474;-92
2022/03/02 00:54:22;;;;;;;34.50;15.80;;;;;;;1.10;99.05;99718.53;5006318;28;20399;-92
2022/03/02 00:56:48;;;;;;;29.67;14.60;;;;;;;0.63;99.21;99656.31;5000928;28;20410;-92
2022/03/02 00:59:13;;;;;;;26.77;14.13;;;;;;;-1.51;99.21;99260.44;5000810;28;20917;-93
2022/03/02 01:01:39;;;;;;;30.23;14.53;;;;;;;-0.70;99.78;99419.13;5014969;28;20245;-92
2022/03/02 01:04:07;;;;;;;34.97;14.53;;;;;;;-1.60;100.00;99309.25;5035894;28;20341;-93
2022/03/02 01:06:35;;;;;;;28.50;14.53;;;;;;;-0.63;100.00;99455.31;5021666;28;20185;-93
2022/03/02 01:09:01;;;;;;;27.97;14.40;;;;;;;-0.64;100.00;99459.44;5039351;28;20424;-93
2022/03/02 01:11:27;;;;;;;28.47;13.40;;;;;;;0.19;100.00;99622.59;5044456;28;20418;-93
2022/03/02 01:13:55;;;;;;;30.30;14.63;;;;;;;0.12;100.00;99614.44;5026681;28;20900;-92
2022/03/02 01:16:21;;;;;;;34.43;15.17;;;;;;;-2.14;100.00;99218.41;5045966;28;20155;-93
2022/03/02 01:18:46;;;;;;;29.90;14.77;;;;;;;0.09;100.00;99610.06;5029905;28;20393;-90
2022/03/02 01:21:12;;;;;;;29.90;15.43;;;;;;;-0.19;100.00;99581.03;5036346;28;20207;-91
2022/03/02 01:23:37;;;;;;;28.83;16.17;;;;;;;0.25;100.00;99622.25;5040769;28;20249;-92
2022/03/02 01:26:03;;;;;;;28.63;15.00;;;;;;;1.08;100.00;99759.03;5029683;28;20202;-92
2022/03/02 01:28:29;;;;;;;28.53;14.27;;;;;;;-2.13;99.65;99190.38;5037699;28;20162;-92
2022/03/02 01:30:54;;;;;;;29.20;14.73;;;;;;;0.26;100.00;99595.00;5032136;28;20532;-92
2022/03/02 01:33:20;;;;;;;29.10;14.77;;;;;;;0.42;99.45;99602.16;5025010;28;20243;-93
2022/03/02 01:35:45;;;;;;;26.27;13.13;;;;;;;0.39;99.48;99617.72;5025463;28;20234;-92
2022/03/02 01:38:11;;;;;;;30.83;14.43;;;;;;;-0.23;100.00;99516.84;5019755;28;20284;-93
2022/03/02 01:40:36;;;;;;;26.80;14.17;;;;;;;1.66;100.00;99857.16;5018038;28;20166;-92
2022/03/02 01:43:03;;;;;;;26.90;14.37;;;;;;;0.04;100.00;99578.94;5017857;28;20175;-91
2022/03/02 01:45:28;;;;;;;26.63;13.43;;;;;;;0.56;100.00;99669.84;5016320;28;20179;-91
2022/03/02 01:47:58;;;;;;;26.77;13.60;;;;;;;-0.89;100.00;99445.59;5019656;28;20418;-91
2022/03/02 01:50:23;;;;;;;28.63;14.43;;;;;;;-0.87;100.00;99438.25;5018037;28;20667;-93
2022/03/02 01:52:49;;;;;;;29.70;13.77;;;;;;;0.56;100.00;99711.31;5017407;28;20413;-93
2022/03/02 01:55:14;;;;;;;31.00;14.37;;;;;;;-2.15;100.00;99220.00;5016628;28;20657;-93
2022/03/02 01:57:41;;;;;;;31.10;14.30;;;;;;;-0.20;100.00;99565.25;5034955;28;20186;-92
2022/03/02 02:00:09;;;;;;;29.33;14.43;;;;;;;-2.90;100.00;99109.06;5037273;28;20225;-94
2022/03/02 02:02:35;;;;;;;31.70;15.23;;;;;;;0.26;100.00;99637.31;5033993;28;20413;-93
2022/03/02 02:05:01;;;;;;;33.47;15.47;;;;;;;-0.05;100.00;99603.03;5035499;28;20918;-94
2022/03/02 02:07:27;;;;;;;28.00;14.80;;;;;;;-1.04;100.00;99399.50;5036244;28;20433;-94
2022/03/02 02:09:57;;;;;;;29.27;14.33;;;;;;;0.95;100.00;99766.22;5033029;28;20248;-92
2022/03/02 02:12:22;;;;;;;28.70;14.20;;;;;;;-2.96;100.00;99067.28;5030418;28;20440;-92
2022/03/02 02:14:48;;;;;;;33.00;15.90;;;;;;;1.30;100.00;99849.91;5032855;28;20425;-93
2022/03/02 02:17:13;;;;;;;34.37;15.93;;;;;;;-0.13;100.00;99549.25;5014375;28;20175;-93
2022/03/02 02:19:38;;;;;;;35.87;17.17;;;;;;;-0.77;100.00;99460.72;5014715;28;20175;-93
2022/03/02 02:22:04;;;;;;;33.83;15.07;;;;;;;-0.23;100.00;99549.19;5013718;28;20166;-93
2022/03/02 02:24:29;;;;;;;31.33;16.67;;;;;;;-1.32;100.00;99390.38;5004939;28;20195;-92
2022/03/02 02:26:55;;;;;;;33.63;15.90;;;;;;;1.15;100.00;99811.19;4994056;28;20178;-94
2022/03/02 02:29:23;;;;;;;50.67;22.03;;;;;;;-0.14;100.00;99575.72;4994471;28;20195;-93
2022/03/02 02:31:49;;;;;;;32.10;15.17;;;;;;;1.16;100.00;99813.81;4996705;28;20178;-93
2022/03/02 02:34:16;;;;;;;31.73;15.63;;;;;;;-2.77;100.00;99117.72;4997229;28;20415;-93
2022/03/02 02:36:42;;;;;;;32.60;16.33;;;;;;;1.16;100.00;99831.25;4993899;28;20206;-93
2022/03/02 02:39:09;;;;;;;34.00;15.57;;;;;;;-1.47;100.00;99408.88;4993698;28;20413;-93
2022/03/02 02:41:35;;;;;;;33.03;15.47;;;;;;;-2.78;100.00;99186.97;4993861;28;20502;-94
2022/03/02 02:44:01;;;;;;;36.27;16.57;;;;;;;-1.47;100.00;99404.78;4997518;28;20468;-93
2022/03/02 02:46:27;;;;;;;31.73;16.77;;;;;;;-0.44;100.00;99535.72;5017460;28;20254;-92
2022/03/02 02:48:52;;;;;;;37.57;17.50;;;;;;;1.14;100.00;99832.75;5034754;28;20171;-93
2022/03/02 02:51:18;;;;;;;37.83;18.60;;;;;;;-0.60;100.00;99513.63;5023750;28;20167;-92
2022/03/02 02:53:43;;;;;;;49.23;25.47;;;;;;;-1.12;100.00;99425.28;5020976;28;20179;-93
2022/03/02 02:56:09;;;;;;;44.47;20.83;;;;;;;-0.34;100.00;99540.78;5017409;28;20174;-94
2022/03/02 02:58:35;;;;;;;45.17;20.53;;;;;;;-2.66;100.00;99111.25;5015198;28;20166;-92
2022/03/02 03:01:02;;;;;;;56.17;27.47;;;;;;;1.19;100.00;99798.22;5016251;28;20292;-93
2022/03/02 03:03:27;;;;;;;49.03;24.80;;;;;;;1.22;100.00;99785.16;5016664;28;20627;-92
2022/03/02 03:05:53;;;;;;;45.30;20.90;;;;;;;-2.30;100.00;99186.41;5018300;28;20409;-93
2022/03/02 03:08:18;;;;;;;43.53;20.97;;;;;;;-1.38;100.00;99384.88;5016201;28;20174;-92
2022/03/02 03:10:45;;;;;;;41.20;20.90;;;;;;;1.07;100.00;99798.03;5013169;28;20686;-93
2022/03/02 03:13:12;;;;;;;45.53;22.83;;;;;;;1.05;100.00;99808.63;5013061;28;20202;-93
2022/03/02 03:15:38;;;;;;;59.23;24.43;;;;;;;-1.30;100.00;99388.91;5012758;28;20182;-93
2022/03/02 03:18:06;;;;;;;55.77;26.40;;;;;;;-1.20;100.00;99422.13;5013403;28;20409;-94
2022/03/02 03:20:33;;;;;;;55.03;25.13;;;;;;;-0.62;100.00;99525.06;5013867;28;20777;-94
2022/03/02 03:22:59;;;;;;;51.80;24.67;;;;;;;-1.80;100.00;99335.63;5014383;28;20486;-94
2022/03/02 03:25:25;;;;;;;53.63;25.70;;;;;;;-3.27;100.00;99068.59;5019324;28;20457;-93
2022/03/02 03:27:51;;;;;;;83.00;34.23;;;;;;;-0.27;100.00;99586.94;5029229;28;20163;-92
2022/03/02 03:30:20;;;;;;;70.23;32.10;;;;;;;-2.73;100.00;99190.72;5001304;28;20488;-93
2022/03/02 03:32:46;;;;;;;77.05;32.10;;;;;;;-3.17;100.00;99130.59;4995399;28;20415;-93
2022/03/02 03:35:14;;;;;;;71.70;30.45;;;;;;;-2.12;100.00;99314.50;4999815;28;20175;-92
2022/03/02 03:37:40;;;;;;;69.05;30.25;;;;;;;0.24;100.00;99750.81;5000942;28;20175;-93
2022/03/02 03:40:08;;;;;;;64.03;29.27;;;;;;;-1.98;100.00;99355.44;5005098;28;20180;-93
2022/03/02 03:42:37;;;;;;;62.70;28.13;;;;;;;-1.50;100.00;99423.47;5002949;28;20168;-93
2022/03/02 03:45:03;;;;;;;78.50;35.92;;;;;;;-1.00;100.00;99492.56;5003629;28;20418;-93
2022/03/02 03:47:29;;;;;;;121.10;48.00;;;;;;;-1.34;100.00;99457.25;5001046;28;20180;-93
2022/03/02 03:49:54;;;;;;;225.57;68.70;;;;;;;-0.90;100.00;99513.41;5001113;28;20502;-92
2022/03/02 03:52:20;;;;;;;137.03;45.97;;;;;;;0.59;100.00;99802.13;5002004;28;20172;-92
2022/03/02 03:54:46;;;;;;;143.43;46.67;;;;;;;-0.04;100.00;99699.31;5017910;28;20187;-91
2022/03/02 03:57:11;;;;;;;69.33;28.67;;;;;;;-0.84;100.00;99546.25;5009539;28;20180;-91
2022/03/02 03:59:37;;;;;;;74.63;29.83;;;;;;;-1.91;100.00;99368.50;5005973;28;20170;-91
2022/03/02 04:02:02;;;;;;;82.77;33.73;;;;;;;-2.17;100.00;99312.34;5007150;28;20183;-92
2022/03/02 04:04:28;;;;;;;77.07;36.03;;;;;;;-1.54;100.00;99417.34;5006459;28;20189;-92
2022/03/02 04:06:53;;;;;;;109.60;43.87;;;;;;;0.57;100.00;99771.25;5004211;28;20244;-92
2022/03/02 04:09:19;;;;;;;75.87;33.57;;;;;;;-1.90;100.00;99324.75;5004161;28;20597;-92
2022/03/02 04:11:44;;;;;;;70.13;31.73;;;;;;;-1.63;100.00;99401.66;5003721;28;20173;-93
2022/03/02 04:14:11;;;;;;;69.70;31.47;;;;;;;0.58;100.00;99775.44;5003723;28;20245;-92
2022/03/02 04:16:36;;;;;;;89.47;37.20;;;;;;;-1.26;100.00;99475.31;5003509;28;20646;-92
2022/03/02 04:19:04;;;;;;;90.20;39.43;;;;;;;-1.95;100.00;99364.00;5002031;28;20179;-92
2022/03/02 04:21:30;;;;;;;68.18;30.65;;;;;;;0.35;100.00;99781.66;5003882;28;20244;-92
2022/03/02 04:23:55;;;;;;;53.50;25.67;;;;;;;-0.58;100.00;99637.19;5003606;28;20670;-93
2022/03/02 04:26:21;;;;;;;42.60;19.70;;;;;;;-4.88;100.00;98897.03;5004428;28;20171;-93
2022/03/02 04:28:46;;;;;;;45.33;20.57;;;;;;;-0.22;100.00;99708.50;5001647;28;20209;-92
2022/03/02 04:31:12;;;;;;;47.63;20.43;;;;;;;-3.14;100.00;99224.94;5001790;28;20690;-92
2022/03/02 04:33:37;;;;;;;36.77;17.00;;;;;;;-3.34;100.00;99244.47;5001087;28;20171;-92
2022/03/02 04:36:04;;;;;;;32.50;16.70;;;;;;;-0.63;100.00;99698.91;5000185;28;20181;-92
2022/03/02 04:38:29;;;;;;;33.58;15.77;;;;;;;-2.91;100.00;99298.84;5002136;28;20249;-94
2022/03/02 04:40:55;;;;;;;34.93;15.43;;;;;;;-1.82;100.00;99527.25;4999440;28;20171;-93
2022/03/02 04:43:21;;;;;;;31.20;15.00;;;;;;;-0.27;100.00;99751.09;4997882;28;20627;-94
2022/03/02 04:45:46;;;;;;;37.90;15.67;;;;;;;-0.35;100.00;99760.34;4998097;28;20233;-94
2022/03/02 04:48:12;;;;;;;39.20;17.63;;;;;;;-2.16;100.00;99445.47;4998016;28;20167;-93
2022/03/02 04:50:38;;;;;;;37.07;16.73;;;;;;;-1.84;100.00;99524.59;4999029;28;20225;-91
2022/03/02 04:53:04;;;;;;;32.63;14.85;;;;;;;-1.69;100.00;99559.91;5001990;28;20174;-91
2022/03/02 04:55:30;;;;;;;35.23;16.77;;;;;;;-2.64;100.00;99374.88;4999885;28;20618;-92
2022/03/02 04:57:58;;;;;;;36.22;17.20;;;;;;;-2.93;100.00;99339.94;4998760;28;20630;-92
2022/03/02 05:00:31;;;;;;;40.22;18.45;;;;;;;-1.70;100.00;99525.03;4997553;28;20218;-93
2022/03/02 05:02:59;;;;;;;43.42;20.38;;;;;;;-0.21;100.00;99756.63;4998706;28;20178;-92
2022/03/02 05:05:26;;;;;;;48.22;21.08;;;;;;;-0.79;100.00;99644.44;5008323;28;20198;-92
2022/03/02 05:07:52;;;;;;;44.10;19.83;;;;;;;-0.71;100.00;99633.59;4999671;28;20588;-92
2022/03/02 05:10:23;;;;;;;41.63;18.67;;;;;;;-2.40;100.00;99342.47;4998129;28;20195;-93
2022/03/02 05:12:49;;;;;;;44.45;18.92;;;;;;;-0.17;100.00;99721.38;5000205;28;20650;-93
2022/03/02 05:15:15;;;;;;;39.00;18.40;;;;;;;-3.97;100.00;99081.03;5014806;28;20235;-91
2022/03/02 05:17:42;;;;;;;43.60;18.33;;;;;;;-4.18;100.00;99045.31;5008342;28;20166;-92
2022/03/02 05:20:10;;;;;;;37.40;17.65;;;;;;;-1.01;100.00;99601.00;5003697;28;20162;-92
2022/03/02 05:22:36;;;;;;;35.92;16.73;;;;;;;-1.01;100.00;99577.75;5005298;28;20174;-93
2022/03/02 05:25:03;;;;;;;37.43;17.77;;;;;;;-0.99;100.00;99547.34;5011956;28;20190;-92
2022/03/02 05:27:29;;;;;;;46.40;22.45;;;;;;;-2.67;100.00;99296.19;5014182;28;20171;-93
2022/03/02 05:29:54;;;;;;;46.83;21.90;;;;;;;-0.69;100.00;99621.31;4988714;28;20229;-89
2022/03/02 05:32:20;;;;;;;67.20;32.70;;;;;;;-2.02;100.00;99390.59;5028175;28;20647;-91
2022/03/02 05:34:45;;;;;;;81.47;37.43;;;;;;;-1.27;100.00;99481.94;5032882;28;20178;-89
2022/03/02 05:37:11;;;;;;;342.33;129.23;;;;;;;-0.46;100.00;99591.91;5016428;28;20653;-88
2022/03/02 05:39:36;;;;;;;193.10;74.20;;;;;;;-1.12;100.00;99472.47;5029055;28;20228;-87
2022/03/02 05:42:02;;;;;;;192.40;80.07;;;;;;;-1.37;100.00;99431.28;5030683;28;20269;-90
2022/03/02 05:44:28;;;;;;;128.27;55.70;;;;;;;0.56;100.00;99749.53;5016120;28;20336;-89
2022/03/02 05:46:53;;;;;;;56.87;27.47;;;;;;;0.08;100.00;99647.28;5027252;28;20229;-90
2022/03/02 05:49:19;;;;;;;81.80;35.33;;;;;;;-0.99;100.00;99486.88;5015820;28;20669;-89
2022/03/02 05:51:45;;;;;;;65.77;28.50;;;;;;;-1.40;100.00;99423.59;5016551;28;20339;-88
2022/03/02 05:54:11;;;;;;;56.57;27.37;;;;;;;-2.47;100.00;99285.59;5015994;28;20273;-89
2022/03/02 05:56:37;;;;;;;62.27;31.50;;;;;;;-1.90;100.00;99375.25;5015911;28;20204;-90
2022/03/02 05:59:09;;;;;;;66.20;33.77;;;;;;;0.53;100.00;99766.72;5000770;28;20202;-89
2022/03/02 06:01:35;;;;;;;72.03;34.05;;;;;;;-1.59;100.00;99412.75;5008788;28;20528;-89
2022/03/02 06:04:05;;;;;;;87.47;41.30;;;;;;;0.37;100.00;99761.13;5014464;28;20186;-89
2022/03/02 06:06:32;;;;;;;101.30;43.33;;;;;;;-4.11;100.00;98994.84;4993756;28;20187;-88
2022/03/02 06:08:59;;;;;;;88.43;40.17;;;;;;;-2.82;100.00;99200.66;5016467;28;20194;-89
2022/03/02 06:11:25;;;;;;;88.90;40.50;;;;;;;0.75;100.00;99783.53;5008121;28;20179;-89
2022/03/02 06:13:51;;;;;;;122.63;53.20;;;;;;;-2.56;100.00;99196.47;5008575;28;20193;-89
2022/03/02 06:16:16;;;;;;;113.55;51.97;;;;;;;0.81;100.00;99764.13;5000425;28;20180;-88
2022/03/02 06:18:42;;;;;;;102.27;44.70;;;;;;;0.93;100.00;99786.03;5008840;28;20186;-89
2022/03/02 06:21:10;;;;;;;69.53;33.07;;;;;;;0.10;100.00;99606.88;5013192;28;20206;-89
2022/03/02 06:23:35;;;;;;;72.10;33.20;;;;;;;-0.42;100.00;99503.56;5013466;28;20269;-89
2022/03/02 06:26:01;;;;;;;75.67;35.53;;;;;;;-0.10;100.00;99576.88;4997004;28;20430;-89
2022/03/02 06:28:26;;;;;;;66.63;32.77;;;;;;;-0.29;100.00;99519.69;5015865;28;20620;-89
2022/03/02 06:30:52;;;;;;;75.47;32.37;;;;;;;-1.51;100.00;99330.75;5003555;28;20257;-87
2022/03/02 06:33:19;;;;;;;72.03;33.60;;;;;;;0.55;100.00;99635.72;5016714;28;20178;-89
2022/03/02 06:35:48;;;;;;;65.63;32.13;;;;;;;0.45;100.00;99639.78;5022442;28;20167;-87
2022/03/02 06:38:14;;;;;;;80.43;37.23;;;;;;;0.32;100.00;99619.56;5026218;28;20412;-89
2022/03/02 06:40:51;;;;;;;88.07;40.80;;;;;;;-1.07;100.00;99328.84;5023384;28;20417;-89
2022/03/02 06:43:20;;;;;;;100.13;44.50;;;;;;;-1.93;100.00;99216.22;5013923;28;20417;-89
2022/03/02 06:45:59;;;;;;;96.17;45.07;;;;;;;-0.08;100.00;99446.91;5015201;28;20430;-89
2022/03/02 06:48:30;;;;;;;123.23;53.73;;;;;;;-0.54;100.00;99330.94;5034333;28;20414;-87
2022/03/02 06:50:59;;;;;;;90.43;39.43;;;;;;;1.35;100.00;99643.28;4998878;28;20484;-88
2022/03/02 06:53:36;;;;;;;86.40;41.27;;;;;;;0.76;100.00;99556.09;5018733;28;20410;-88
2022/03/02 06:56:05;;;;;;;76.87;38.03;;;;;;;-0.44;100.00;99328.53;5017125;28;20453;-88
2022/03/02 06:58:42;;;;;;;84.50;38.20;;;;;;;0.42;100.00;99462.72;4996556;28;20410;-90
2022/03/02 07:01:13;;;;;;;92.77;41.67;;;;;;;1.48;100.00;99612.03;5024808;28;20472;-88
2022/03/02 07:03:47;;;;;;;68.77;33.30;;;;;;;1.17;99.42;99496.47;4998853;28;20984;-89
2022/03/02 07:06:14;;;;;;;67.77;31.87;;;;;;;3.05;98.11;99742.91;5020482;28;20428;-89
2022/03/02 07:08:43;;;;;;;117.53;51.07;;;;;;;1.77;94.55;99473.03;5029032;28;20520;-88
2022/03/02 07:11:09;;;;;;;109.43;48.07;;;;;;;2.39;93.03;99554.44;5026425;28;20567;-89
2022/03/02 07:13:36;;;;;;;111.70;48.43;;;;;;;2.07;88.55;99386.28;5020136;28;20464;-88
2022/03/02 07:16:02;;;;;;;129.13;54.73;;;;;;;4.46;85.73;99767.91;5011998;28;20249;-88
2022/03/02 07:18:28;;;;;;;107.00;46.87;;;;;;;4.47;84.92;99771.28;5026836;28;21023;-89
2022/03/02 07:20:56;;;;;;;53.97;24.40;;;;;;;-0.06;79.18;99112.06;5011911;28;20431;-89
2022/03/02 07:23:27;;;;;;;18.63;10.70;;;;;;;2.39;74.41;99589.41;5020527;28;20659;-89
2022/03/02 07:25:58;;;;;;;26.10;12.27;;;;;;;1.63;74.31;99411.19;5054683;28;20436;-90
2022/03/02 07:28:26;;;;;;;19.97;9.80;;;;;;;3.86;72.55;99734.19;5033595;28;20424;-90
2022/03/02 07:30:53;;;;;;;14.63;8.43;;;;;;;-1.20;70.88;98872.50;5011855;28;20483;-90
2022/03/02 07:33:21;;;;;;;25.30;12.10;;;;;;;1.96;70.73;99350.53;5021717;28;20439;-89
2022/03/02 07:35:56;;;;;;;22.10;12.23;;;;;;;1.72;70.13;99274.69;5017730;28;20444;-89
2022/03/02 07:38:22;;;;;;;20.17;9.97;;;;;;;3.65;69.34;99622.47;5012675;28;20439;-89
2022/03/02 07:40:48;;;;;;;24.13;12.63;;;;;;;2.96;68.68;99446.41;5034034;28;20420;-89
2022/03/02 07:43:15;;;;;;;20.03;10.37;;;;;;;2.72;68.85;99452.06;5020202;28;20473;-89
2022/03/02 07:45:40;;;;;;;29.13;16.00;;;;;;;3.98;69.32;99594.84;5003976;28;20455;-89
2022/03/02 07:48:06;;;;;;;19.77;9.87;;;;;;;3.53;66.13;99476.38;5036667;28;20833;-88
2022/03/02 07:50:31;;;;;;;17.57;9.53;;;;;;;3.45;66.81;99492.47;5042796;28;20201;-88
2022/03/02 07:53:00;;;;;;;14.00;7.47;;;;;;;2.70;65.99;99361.13;5022381;28;20212;-88
2022/03/02 07:55:28;;;;;;;20.70;11.23;;;;;;;2.43;64.69;99249.19;5025034;28;20194;-87
2022/03/02 07:57:55;;;;;;;21.53;11.57;;;;;;;3.03;64.22;99300.19;5027812;28;20768;-89
2022/03/02 08:00:22;;;;;;;29.33;14.33;;;;;;;5.19;63.53;99651.06;5020521;28;20488;-87
2022/03/02 08:02:51;;;;;;;36.70;18.43;;;;;;;4.78;63.77;99461.78;5017145;28;20495;-88
2022/03/02 08:05:17;;;;;;;25.20;13.27;;;;;;;3.31;61.62;99256.34;5015550;28;21025;-90
2022/03/02 08:07:43;;;;;;;26.03;13.00;;;;;;;5.88;62.43;99691.78;5012768;28;20433;-87
2022/03/02 08:10:09;;;;;;;32.80;16.13;;;;;;;5.18;61.52;99461.16;4997793;28;20202;-90
2022/03/02 08:12:35;;;;;;;20.67;11.43;;;;;;;4.92;61.86;99571.41;5014735;28;20189;-89
2022/03/02 08:15:03;;;;;;;17.07;8.70;;;;;;;5.16;61.72;99598.19;5014764;28;20197;-88
2022/03/02 08:17:28;;;;;;;19.83;11.13;;;;;;;2.90;60.56;99255.94;5013159;28;20434;-88
2022/03/02 08:19:54;;;;;;;28.37;16.73;;;;;;;5.90;61.97;99655.06;5023475;28;20424;-89
2022/03/02 08:22:22;;;;;;;17.27;8.77;;;;;;;5.90;61.33;99685.22;5014907;28;20934;-88
2022/03/02 08:24:59;;;;;;;30.07;16.07;;;;;;;4.54;60.89;99320.63;5023532;28;20190;-88
2022/03/02 08:27:26;;;;;;;33.37;16.87;;;;;;;5.01;59.49;99301.13;5005439;28;20500;-87
2022/03/02 08:29:56;;;;;;;21.17;12.23;;;;;;;6.80;59.07;99674.31;4986139;28;20497;-90
2022/03/02 08:32:24;;;;;;;17.67;10.03;;;;;;;5.89;59.66;99567.91;5014973;28;20441;-89
2022/03/02 08:34:50;;;;;;;21.70;12.03;;;;;;;6.57;57.94;99548.72;5022664;28;20449;-88
2022/03/02 08:37:17;;;;;;;34.93;17.13;;;;;;;6.04;59.69;99530.34;5012826;28;20469;-89
2022/03/02 08:39:43;;;;;;;39.33;22.13;;;;;;;5.82;57.35;99349.72;5020486;28;20429;-89
2022/03/02 08:42:10;;;;;;;31.80;18.50;;;;;;;4.97;56.73;99128.63;5002155;28;20812;-91
2022/03/02 08:44:36;;;;;;;24.17;12.87;;;;;;;6.23;56.83;99456.19;5017461;28;20933;-87
2022/03/02 08:47:02;;;;;;;37.40;18.93;;;;;;;6.20;57.24;99420.81;5005311;28;20429;-89
2022/03/02 08:49:27;;;;;;;12.93;7.33;;;;;;;5.38;57.59;99490.91;5013682;28;20194;-89
2022/03/02 08:51:54;;;;;;;16.23;9.40;;;;;;;4.98;57.82;99310.97;5004420;28;20686;-89
2022/03/02 08:54:20;;;;;;;13.37;8.00;;;;;;;4.73;56.62;99247.47;5015804;28;20266;-89
2022/03/02 08:56:47;;;;;;;16.30;9.23;;;;;;;6.01;55.72;99435.53;5003603;28;20494;-88
2022/03/02 08:59:15;;;;;;;12.50;7.93;;;;;;;3.48;54.61;98919.72;5007768;28;20425;-87
2022/03/02 09:01:44;;;;;;;25.67;11.80;;;;;;;4.46;55.20;99251.59;5020301;28;20466;-88
2022/03/02 09:04:14;;;;;;;22.33;11.00;;;;;;;3.76;54.96;99092.53;5034948;28;20432;-86
2022/03/02 09:06:40;;;;;;;38.53;17.43;;;;;;;6.98;54.38;99641.06;5019569;28;20440;-89
2022/03/02 09:09:06;;;;;;;18.57;9.13;;;;;;;6.85;55.08;99620.97;5045463;28;20444;-87
2022/03/02 09:11:31;;;;;;;12.70;6.53;;;;;;;4.03;55.75;99302.16;5015006;28;20190;-89
2022/03/02 09:13:57;;;;;;;16.33;9.10;;;;;;;5.32;55.68;99440.34;5021456;28;20435;-88
2022/03/02 09:16:23;;;;;;;9.17;5.97;;;;;;;4.33;53.13;99143.84;5011579;28;20707;-89
2022/03/02 09:18:48;;;;;;;18.00;10.50;;;;;;;7.31;55.31;99646.41;5017391;28;20226;-90
2022/03/02 09:21:14;;;;;;;32.97;13.57;;;;;;;6.75;54.92;99557.44;5022685;28;20178;-88
2022/03/02 09:23:40;;;;;;;20.00;11.90;;;;;;;5.21;54.81;99239.66;5020027;28;20213;-88
2022/03/02 09:26:08;;;;;;;10.67;6.40;;;;;;;3.70;54.16;98950.34;5022904;28;20470;-88
2022/03/02 09:28:37;;;;;;;11.47;7.00;;;;;;;7.34;54.29;99556.81;5029337;28;20444;-87
2022/03/02 09:31:05;;;;;;;10.23;5.97;;;;;;;3.50;52.57;98925.69;5031238;28;20482;-87
2022/03/02 09:33:31;;;;;;;10.07;6.60;;;;;;;7.07;53.03;99546.00;5024045;28;20494;-87
2022/03/02 09:36:00;;;;;;;28.37;13.10;;;;;;;4.78;53.51;99160.88;5005777;28;20432;-87
2022/03/02 09:38:27;;;;;;;13.80;6.57;;;;;;;6.11;52.82;99395.09;5004255;28;20456;-87
2022/03/02 09:40:55;;;;;;;18.90;9.03;;;;;;;5.88;53.24;99209.44;5037834;28;20400;-89
2022/03/02 09:43:25;;;;;;;14.00;10.03;;;;;;;6.18;51.20;99251.44;5019709;28;20408;-89
2022/03/02 09:45:57;;;;;;;11.30;6.60;;;;;;;4.67;50.52;98896.13;5021828;28;20412;-88
2022/03/02 09:48:31;;;;;;;9.27;5.87;;;;;;;6.70;50.36;99148.78;5038694;28;20494;-88
2022/03/02 09:51:03;;;;;;;8.97;5.67;;;;;;;6.29;50.87;99237.00;5026580;28;20197;-87
2022/03/02 09:53:31;;;;;;;8.77;5.30;;;;;;;7.01;52.09;99366.06;5030374;28;20209;-89
2022/03/02 09:56:01;;;;;;;10.07;6.37;;;;;;;4.62;52.72;98971.06;5020533;28;20665;-88
2022/03/02 09:58:27;;;;;;;14.60;8.60;;;;;;;8.56;53.28;99544.41;5016718;28;20244;-90
2022/03/02 10:00:58;;;;;;;24.67;14.47;;;;;;;6.34;52.73;99182.81;5043487;28;20232;-89
2022/03/02 10:03:27;;;;;;;35.57;20.50;;;;;;;4.96;53.08;98955.50;5033984;28;20257;-89
2022/03/02 10:05:53;;;;;;;31.50;17.40;;;;;;;6.82;52.97;99165.41;5023198;28;20206;-91
2022/03/02 10:08:21;;;;;;;30.00;16.60;;;;;;;8.42;51.67;99361.19;5041089;28;20188;-88
2022/03/02 10:10:48;;;;;;;31.83;15.37;;;;;;;7.01;52.85;99225.13;5012905;28;20210;-89
2022/03/02 10:13:16;;;;;;;32.60;16.23;;;;;;;8.64;55.16;99521.34;5023813;28;20194;-90
2022/03/02 10:15:43;;;;;;;24.47;11.87;;;;;;;5.49;54.94;99119.22;5031714;28;20182;-89
2022/03/02 10:18:12;;;;;;;14.83;8.57;;;;;;;7.26;54.44;99496.72;5017090;28;20162;-90
2022/03/02 10:20:40;;;;;;;31.27;13.87;;;;;;;6.56;54.88;99335.78;5010648;28;20209;-89
2022/03/02 10:23:08;;;;;;;15.07;8.87;;;;;;;7.45;54.66;99509.56;5031317;28;20190;-90
2022/03/02 10:25:58;;;;;;;27.63;13.37;;;;;;;8.52;52.88;99503.00;5015071;28;20452;-90
2022/03/02 10:28:27;;;;;;;17.67;10.90;;;;;;;7.81;51.68;99259.66;5031125;28;20764;-90
2022/03/02 10:31:18;;;;;;;18.30;10.80;;;;;;;7.20;51.54;99216.94;5023166;28;20228;-88
2022/03/02 10:33:55;;;;;;;21.27;11.97;;;;;;;8.03;53.12;99396.13;5036234;28;20213;-90
2022/03/02 10:36:26;;;;;;;9.73;6.67;;;;;;;7.00;52.16;99216.72;5047720;28;20177;-89
2022/03/02 10:38:57;;;;;;;10.50;5.80;;;;;;;8.37;51.56;99469.41;5043374;28;20193;-87
2022/03/02 10:41:25;;;;;;;16.13;7.40;;;;;;;5.43;50.87;98915.53;5023865;28;20185;-88
2022/03/02 10:44:03;;;;;;;8.60;5.50;;;;;;;8.40;51.06;99451.94;5035111;28;20193;-88
2022/03/02 10:46:32;;;;;;;20.90;10.33;;;;;;;6.19;50.23;99076.38;5048480;28;20185;-89
2022/03/02 10:49:19;;;;;;;10.40;5.27;;;;;;;8.41;48.44;99430.06;5053280;28;20254;-89
2022/03/02 10:51:45;;;;;;;8.10;5.30;;;;;;;5.32;50.76;98996.13;5047874;28;20246;-89
2022/03/02 10:54:16;;;;;;;8.33;5.50;;;;;;;7.27;52.87;99329.78;5052395;28;20180;-89
2022/03/02 10:56:43;;;;;;;6.30;3.57;;;;;;;7.37;47.90;99295.09;5058954;28;20192;-88
2022/03/02 10:59:18;;;;;;;11.20;6.43;;;;;;;7.13;47.84;99157.84;5049780;28;20185;-91
2022/03/02 11:01:44;;;;;;;23.97;11.70;;;;;;;6.83;46.67;98995.22;5040152;28;20224;-88
2022/03/02 11:04:11;;;;;;;14.97;8.43;;;;;;;8.94;47.33;99322.63;5036988;28;20702;-88
2022/03/02 11:06:38;;;;;;;19.37;10.20;;;;;;;7.88;48.69;99120.63;5048553;28;20390;-89
2022/03/02 11:09:05;;;;;;;9.57;6.23;;;;;;;7.42;49.81;99190.44;5057782;28;20188;-89
2022/03/02 11:14:26;;;;;;;18.67;9.50;;;;;;;7.42;48.79;99061.16;4992344;28;20686;-90
2022/03/02 11:17:12;;;;;;;14.77;7.37;;;;;;;6.39;49.64;99031.47;4978911;28;20258;-89
2022/03/02 11:19:45;;;;;;;18.83;7.10;;;;;;;6.75;51.38;99175.06;4981354;28;20203;-89
2022/03/02 11:22:17;;;;;;;34.00;16.50;;;;;;;5.51;51.46;98881.69;5006262;28;20254;-88